Time;durP1;ratioP1;P1;durP2;ratioP2;P2;SDS_P1;SDS_P2;PMS_P1;PMS_P2;Temp;Humidity;BMP_temperature;BMP_pressure;BME280_temperature;BME280_humidity;BME280_pressure;Samples;Min_cycle;Max_cycle;Signal;HPM_P1;HPM_P2
2022/02/18 00:00:48;;;;;;;7.10;1.43;;;;;;;8.99;67.47;96120.28;5039995;28;20221;-69
2022/02/18 00:03:15;;;;;;;17.67;1.43;;;;;;;8.93;67.36;96128.84;5039675;28;20225;-69
2022/02/18 00:05:42;;;;;;;4.80;0.73;;;;;;;9.08;66.90;96132.41;5040366;28;20201;-69
2022/02/18 00:08:09;;;;;;;2.53;0.77;;;;;;;8.85;67.73;96126.25;5039862;28;21459;-69
2022/02/18 00:10:36;;;;;;;13.47;1.40;;;;;;;8.86;68.06;96118.19;5040148;28;20217;-69
2022/02/18 00:13:03;;;;;;;12.90;1.87;;;;;;;8.86;68.06;96127.88;5039701;28;20212;-69
2022/02/18 00:15:30;;;;;;;8.30;1.03;;;;;;;8.96;68.12;96118.81;5039693;28;20221;-69
2022/02/18 00:17:57;;;;;;;10.03;1.43;;;;;;;8.90;68.11;96130.00;5039916;28;20223;-69
2022/02/18 00:20:24;;;;;;;6.27;1.10;;;;;;;8.95;68.19;96117.19;5039415;28;20225;-69
2022/02/18 00:22:50;;;;;;;2.70;0.70;;;;;;;8.87;68.63;96124.25;5039094;28;20208;-69
2022/02/18 00:25:17;;;;;;;13.17;0.90;;;;;;;8.74;69.08;96129.22;5040264;28;20190;-69
2022/02/18 00:27:43;;;;;;;7.80;0.80;;;;;;;9.04;68.54;96110.91;5039393;28;20212;-69
2022/02/18 00:30:11;;;;;;;8.13;1.00;;;;;;;9.13;68.28;96094.09;5039786;28;20217;-69
2022/02/18 00:32:40;;;;;;;8.90;1.20;;;;;;;9.18;68.05;96095.22;5039160;28;20201;-69
2022/02/18 00:35:07;;;;;;;5.73;1.53;;;;;;;9.37;68.23;96107.13;5039628;28;20225;-69
2022/02/18 00:37:34;;;;;;;6.03;1.37;;;;;;;9.07;69.02;96121.06;5038610;28;20217;-69
2022/02/18 00:40:01;;;;;;;4.43;1.07;;;;;;;8.95;69.05;96137.34;5039260;28;20227;-69
2022/02/18 00:42:27;;;;;;;7.50;0.63;;;;;;;9.09;68.53;96140.13;5038596;28;20197;-69
2022/02/18 00:44:54;;;;;;;1.60;1.00;;;;;;;8.94;69.07;96141.81;5038788;28;20223;-69
2022/02/18 00:47:21;;;;;;;2.13;0.73;;;;;;;9.11;68.55;96136.34;5039369;28;20212;-69
2022/02/18 00:49:50;;;;;;;14.17;1.63;;;;;;;9.14;69.04;96127.28;5039202;28;20221;-69
2022/02/18 00:52:17;;;;;;;2.27;1.17;;;;;;;9.08;68.77;96117.44;5038817;28;20201;-69
2022/02/18 00:54:44;;;;;;;2.10;1.13;;;;;;;8.98;68.83;96121.28;5038490;28;20225;-69
2022/02/18 00:57:10;;;;;;;4.77;1.10;;;;;;;8.96;69.29;96129.34;5039707;28;20692;-69
2022/02/18 00:59:37;;;;;;;4.00;1.20;;;;;;;9.07;68.99;96112.38;5038857;28;20302;-69
2022/02/18 01:02:04;;;;;;;3.50;1.43;;;;;;;9.09;69.32;96109.38;5038250;28;20224;-69
2022/02/18 01:04:30;;;;;;;8.23;0.60;;;;;;;9.08;68.76;96117.44;5037870;28;20197;-69
2022/02/18 01:06:59;;;;;;;0.47;0.30;;;;;;;9.17;69.17;96116.41;5039191;28;20205;-69
2022/02/18 01:09:25;;;;;;;3.30;1.07;;;;;;;9.04;69.13;96120.56;5038528;28;20201;-69
2022/02/18 01:11:52;;;;;;;6.60;0.67;;;;;;;8.99;69.59;96131.59;5038374;28;20680;-69
2022/02/18 01:14:18;;;;;;;1.47;1.00;;;;;;;9.17;69.10;96111.97;5038199;28;20232;-69
2022/02/18 01:16:45;;;;;;;5.53;1.13;;;;;;;9.06;69.75;96106.28;5038337;28;20216;-69
2022/02/18 01:19:11;;;;;;;2.37;0.77;;;;;;;9.16;69.65;96093.75;5038278;28;20209;-69
2022/02/18 01:21:38;;;;;;;8.23;1.13;;;;;;;9.14;70.22;96111.53;5038583;28;20225;-69
2022/02/18 01:24:06;;;;;;;1.63;0.73;;;;;;;9.24;70.74;96094.53;5037646;28;20854;-69
2022/02/18 01:26:33;;;;;;;7.40;1.03;;;;;;;9.19;70.82;96110.00;5038383;28;20287;-69
2022/02/18 01:28:59;;;;;;;7.20;0.77;;;;;;;9.11;71.56;96111.84;5037985;28;20677;-69
2022/02/18 01:31:26;;;;;;;5.50;1.03;;;;;;;9.23;71.09;96124.44;5037836;28;20217;-69
2022/02/18 01:33:55;;;;;;;1.20;0.50;;;;;;;9.15;72.08;96123.66;5037073;28;20212;-69
2022/02/18 01:36:22;;;;;;;1.30;0.80;;;;;;;9.22;72.13;96114.91;5038629;28;20398;-69
2022/02/18 01:38:49;;;;;;;0.87;0.33;;;;;;;9.17;72.14;96101.47;5038554;28;20323;-70
2022/02/18 01:41:17;;;;;;;15.00;1.93;;;;;;;9.28;72.80;96092.41;5037400;28;20727;-69
2022/02/18 01:43:54;;;;;;;2.67;0.50;;;;;;;9.44;72.31;96081.75;5037417;28;20212;-69
2022/02/18 01:46:22;;;;;;;6.77;1.50;;;;;;;8.99;73.44;96084.31;5037835;28;20684;-69
2022/02/18 01:48:49;;;;;;;7.60;2.20;;;;;;;9.38;72.50;96098.22;5036675;28;20197;-69
2022/02/18 01:51:19;;;;;;;21.97;0.93;;;;;;;9.35;72.98;96096.75;5037572;28;20708;-69
2022/02/18 01:53:47;;;;;;;4.03;0.57;;;;;;;9.34;72.84;96086.41;5037294;28;20201;-69
2022/02/18 01:56:14;;;;;;;12.17;1.67;;;;;;;9.16;73.51;96072.72;5037716;28;20221;-69
2022/02/18 01:58:42;;;;;;;0.50;0.40;;;;;;;9.52;72.77;96068.56;5037955;28;20271;-69
2022/02/18 02:01:09;;;;;;;4.23;0.80;;;;;;;9.19;73.96;96075.81;5037741;28;20229;-69
2022/02/18 02:03:36;;;;;;;10.03;0.70;;;;;;;9.14;74.58;96077.34;5036171;28;21027;-69
2022/02/18 02:06:03;;;;;;;7.10;1.30;;;;;;;9.32;74.00;96083.16;5037696;28;20226;-69
2022/02/18 02:08:30;;;;;;;11.27;1.73;;;;;;;9.30;73.96;96071.97;5039118;28;20717;-69
2022/02/18 02:10:57;;;;;;;5.50;0.57;;;;;;;9.38;74.08;96072.78;5037765;28;20231;-70
2022/02/18 02:13:31;;;;;;;5.63;0.70;;;;;;;9.60;73.59;96064.06;5036445;28;20201;-69
2022/02/18 02:15:59;;;;;;;1.27;0.80;;;;;;;9.49;74.21;96053.13;5037662;28;20715;-69
2022/02/18 02:18:26;;;;;;;8.97;1.63;;;;;;;9.33;74.63;96045.34;5037721;28;20249;-69
2022/02/18 02:20:54;;;;;;;3.50;0.57;;;;;;;9.23;75.04;96057.91;5036933;28;20224;-69
2022/02/18 02:23:23;;;;;;;6.90;1.23;;;;;;;9.45;74.90;96051.84;5037787;28;20209;-69
2022/02/18 02:25:50;;;;;;;5.03;1.00;;;;;;;9.43;75.15;96053.81;5037144;28;20208;-69
2022/02/18 02:28:17;;;;;;;10.00;1.63;;;;;;;9.41;75.44;96042.69;5037518;28;20204;-69
2022/02/18 02:30:43;;;;;;;5.67;1.17;;;;;;;9.45;75.15;96042.13;5037018;28;20217;-69
2022/02/18 02:33:10;;;;;;;2.77;0.90;;;;;;;9.44;75.33;96039.69;5036718;28;20269;-69
2022/02/18 02:35:37;;;;;;;1.50;0.63;;;;;;;9.43;75.45;96038.03;5037181;28;20228;-69
2022/02/18 02:38:04;;;;;;;2.87;0.77;;;;;;;9.41;75.42;96047.94;5037644;28;20205;-69
2022/02/18 02:40:32;;;;;;;5.83;1.33;;;;;;;9.46;75.79;96048.22;5037948;28;20236;-69
2022/02/18 02:42:59;;;;;;;9.43;1.70;;;;;;;9.58;75.42;96052.88;5036949;28;20243;-69
2022/02/18 02:45:26;;;;;;;8.03;0.70;;;;;;;9.58;75.35;96055.53;5037029;28;20204;-69
2022/02/18 02:47:52;;;;;;;0.73;0.57;;;;;;;9.43;76.03;96046.78;5037587;28;20215;-69
2022/02/18 02:50:19;;;;;;;3.30;0.67;;;;;;;9.51;75.73;96051.97;5036787;28;21124;-69
2022/02/18 02:52:45;;;;;;;2.77;0.80;;;;;;;9.43;76.28;96049.41;5036151;28;20576;-69
2022/02/18 02:55:13;;;;;;;11.17;1.83;;;;;;;9.59;75.51;96049.28;5037162;28;20225;-69
2022/02/18 02:57:42;;;;;;;1.70;0.80;;;;;;;9.79;75.36;96050.44;5037013;28;20237;-69
2022/02/18 03:00:10;;;;;;;7.50;1.60;;;;;;;9.64;75.73;96043.50;5040041;28;20221;-69
2022/02/18 03:02:36;;;;;;;3.53;1.73;;;;;;;9.69;75.53;96044.59;5041082;28;20216;-69
2022/02/18 03:05:03;;;;;;;5.00;1.37;;;;;;;9.72;75.81;96041.59;5041583;28;20200;-70
2022/02/18 03:07:30;;;;;;;15.33;1.57;;;;;;;9.56;75.81;96035.66;5040904;28;21133;-69
2022/02/18 03:09:56;;;;;;;3.30;0.97;;;;;;;9.52;76.34;96027.31;5041606;28;20221;-69
2022/02/18 03:12:23;;;;;;;2.73;1.10;;;;;;;9.41;76.55;96025.06;5040383;28;20231;-69
2022/02/18 03:14:51;;;;;;;1.80;1.17;;;;;;;9.63;76.79;96026.06;5040337;28;20299;-69
2022/02/18 03:17:18;;;;;;;4.53;1.63;;;;;;;9.37;77.01;96023.78;5040515;28;20243;-69
2022/02/18 03:19:44;;;;;;;3.93;0.90;;;;;;;9.58;76.55;96020.53;5042332;28;20229;-69
2022/02/18 03:22:11;;;;;;;1.50;0.83;;;;;;;9.47;77.21;96028.81;5040275;28;20197;-69
2022/02/18 03:24:38;;;;;;;5.73;0.70;;;;;;;9.30;78.03;96027.28;5040851;28;20316;-69
2022/02/18 03:27:05;;;;;;;2.30;0.67;;;;;;;9.33;78.16;96037.44;5040521;28;20209;-69
2022/02/18 03:29:31;;;;;;;7.57;2.40;;;;;;;9.51;77.65;96049.34;5041339;28;20581;-69
2022/02/18 03:31:59;;;;;;;4.50;0.90;;;;;;;9.72;77.13;96055.59;5040659;28;20206;-69
2022/02/18 03:34:26;;;;;;;5.60;1.23;;;;;;;9.66;76.96;96057.28;5040350;28;20205;-69
2022/02/18 03:36:52;;;;;;;8.30;0.83;;;;;;;9.62;77.13;96053.38;5040590;28;20705;-69
2022/02/18 03:39:19;;;;;;;9.63;2.67;;;;;;;9.63;77.31;96039.22;5040206;28;20201;-70
2022/02/18 03:41:51;;;;;;;3.80;0.70;;;;;;;9.74;77.43;96043.06;5040484;28;20224;-69
2022/02/18 03:44:18;;;;;;;1.07;0.77;;;;;;;9.67;77.19;96033.41;5037284;28;20201;-69
2022/02/18 03:46:44;;;;;;;1.00;0.57;;;;;;;9.59;78.08;96037.94;5040995;28;20197;-69
2022/02/18 03:49:12;;;;;;;0.67;0.67;;;;;;;9.65;78.85;96032.78;5040842;28;20201;-70
2022/02/18 03:51:39;;;;;;;12.90;1.93;;;;;;;9.64;78.41;96027.72;5043845;28;20225;-69
2022/02/18 03:54:05;;;;;;;10.17;0.70;;;;;;;9.67;78.56;96032.63;5042911;28;20212;-69
2022/02/18 03:56:32;;;;;;;7.43;1.03;;;;;;;9.61;78.92;96036.78;5042738;28;20697;-69
2022/02/18 03:58:58;;;;;;;3.97;0.87;;;;;;;9.68;78.76;96037.69;5040272;28;20235;-69
2022/02/18 04:01:25;;;;;;;3.63;1.10;;;;;;;9.50;79.63;96029.28;5040458;28;20225;-69
2022/02/18 04:03:51;;;;;;;5.57;0.70;;;;;;;9.54;79.19;96020.03;5039864;28;20579;-69
2022/02/18 04:06:19;;;;;;;5.17;1.30;;;;;;;9.71;79.41;96011.88;5039729;28;20209;-69
2022/02/18 04:08:45;;;;;;;3.60;1.33;;;;;;;9.64;79.49;96011.94;5039735;28;20205;-69
2022/02/18 04:11:12;;;;;;;0.83;0.77;;;;;;;9.55;79.72;96010.38;5038356;28;20681;-70
2022/02/18 04:13:38;;;;;;;2.57;1.40;;;;;;;9.53;80.20;96007.88;5039579;28;20197;-70
2022/02/18 04:16:05;;;;;;;2.17;0.40;;;;;;;9.59;79.86;96007.19;5039691;28;20232;-70
2022/02/18 04:18:31;;;;;;;1.57;0.67;;;;;;;9.61;79.93;96013.09;5040212;28;20923;-69
2022/02/18 04:20:58;;;;;;;2.83;0.60;;;;;;;9.64;79.79;96004.03;5040122;28;20225;-69
2022/02/18 04:23:25;;;;;;;2.10;1.30;;;;;;;9.67;80.64;95993.16;5039460;28;20223;-69
2022/02/18 04:25:52;;;;;;;4.80;0.83;;;;;;;9.68;79.97;96002.69;5039977;28;21003;-69
2022/02/18 04:28:18;;;;;;;4.63;1.13;;;;;;;9.82;79.48;95994.81;5040736;28;20227;-69
2022/02/18 04:30:45;;;;;;;5.03;1.17;;;;;;;9.86;79.43;95996.94;5040003;28;20217;-69
2022/02/18 04:33:15;;;;;;;3.57;1.77;;;;;;;9.71;79.52;96011.88;5038396;28;20206;-69
2022/02/18 04:35:41;;;;;;;7.27;1.40;;;;;;;9.79;79.59;95996.00;5039444;28;21059;-69
2022/02/18 04:38:08;;;;;;;8.53;1.13;;;;;;;9.79;79.44;96010.97;5040580;28;20205;-69
2022/02/18 04:40:36;;;;;;;7.43;1.27;;;;;;;9.89;79.49;96009.72;5038775;28;20235;-69
2022/02/18 04:43:03;;;;;;;8.23;1.43;;;;;;;9.66;79.89;95992.34;5041432;28;20209;-69
2022/02/18 04:45:29;;;;;;;4.63;1.03;;;;;;;9.71;79.93;95996.06;5041455;28;20203;-70
2022/02/18 04:47:56;;;;;;;3.07;0.80;;;;;;;9.74;79.80;95995.72;5040819;28;20213;-69
2022/02/18 04:50:23;;;;;;;3.57;0.70;;;;;;;9.53;79.97;95991.28;5039161;28;20240;-69
2022/02/18 04:52:49;;;;;;;5.70;1.17;;;;;;;9.64;80.01;95985.63;5038963;28;20217;-69
2022/02/18 04:55:16;;;;;;;12.73;1.40;;;;;;;9.51;80.12;95986.22;5039301;28;20212;-69
2022/02/18 04:57:48;;;;;;;1.97;1.20;;;;;;;9.72;79.90;95979.31;5039052;28;20205;-69
2022/02/18 05:00:16;;;;;;;15.73;1.13;;;;;;;9.70;79.84;95972.56;5039703;28;20347;-69
2022/02/18 05:02:42;;;;;;;4.40;1.00;;;;;;;9.65;79.72;95963.56;5038516;28;20198;-69
2022/02/18 05:05:09;;;;;;;18.13;1.83;;;;;;;9.49;79.94;95968.97;5038855;28;20217;-69
2022/02/18 05:07:35;;;;;;;4.37;0.93;;;;;;;9.64;79.58;95961.94;5039119;28;20201;-70
2022/02/18 05:10:03;;;;;;;5.17;0.50;;;;;;;9.82;79.19;95956.16;5038984;28;20232;-69
2022/02/18 05:12:30;;;;;;;7.73;1.63;;;;;;;9.63;79.29;95947.16;5038050;28;20225;-69
2022/02/18 05:14:57;;;;;;;4.47;0.77;;;;;;;9.83;78.50;95936.75;5038998;28;20205;-69
2022/02/18 05:17:24;;;;;;;9.07;1.67;;;;;;;9.69;78.73;95936.75;5039124;28;20228;-69
2022/02/18 05:19:51;;;;;;;1.60;0.67;;;;;;;9.66;79.06;95928.38;5038733;28;20232;-69
2022/02/18 05:22:17;;;;;;;1.70;0.50;;;;;;;9.52;79.11;95924.72;5037803;28;20208;-69
2022/02/18 05:24:43;;;;;;;3.80;1.13;;;;;;;9.62;78.37;95919.22;5039090;28;21381;-69
2022/02/18 05:27:10;;;;;;;10.50;2.03;;;;;;;9.60;78.46;95923.81;5038656;28;20212;-69
2022/02/18 05:29:37;;;;;;;13.23;1.60;;;;;;;9.65;77.88;95922.31;5038550;28;20229;-69
2022/02/18 05:32:06;;;;;;;6.27;1.10;;;;;;;9.86;77.62;95917.16;5038626;28;20216;-69
2022/02/18 05:34:33;;;;;;;3.13;0.80;;;;;;;9.58;77.98;95915.31;5038198;28;20197;-69
2022/02/18 05:36:59;;;;;;;6.07;1.17;;;;;;;9.66;77.79;95909.97;5038446;28;20701;-69
2022/02/18 05:39:26;;;;;;;7.20;0.83;;;;;;;9.67;77.67;95903.72;5039005;28;20209;-69
2022/02/18 05:41:53;;;;;;;1.17;0.67;;;;;;;9.74;77.26;95898.34;5038775;28;20220;-69
2022/02/18 05:44:19;;;;;;;2.67;0.67;;;;;;;9.68;77.39;95906.97;5037915;28;20201;-69
2022/02/18 05:46:46;;;;;;;4.27;1.07;;;;;;;9.79;76.64;95901.28;5038584;28;20205;-69
2022/02/18 05:49:14;;;;;;;10.53;1.03;;;;;;;10.07;76.10;95909.38;5038829;28;20216;-69
2022/02/18 05:51:41;;;;;;;5.77;0.67;;;;;;;9.69;76.38;95913.06;5035130;28;20225;-70
2022/02/18 05:54:07;;;;;;;2.00;0.90;;;;;;;9.93;76.09;95913.63;5037076;28;20213;-70
2022/02/18 05:56:34;;;;;;;2.03;0.93;;;;;;;9.88;75.49;95907.28;5038789;28;20225;-70
2022/02/18 05:59:02;;;;;;;4.60;1.03;;;;;;;9.67;77.05;95911.59;5037644;28;20212;-70
2022/02/18 06:01:28;;;;;;;6.20;1.23;;;;;;;9.67;76.69;95904.50;5038064;28;20918;-69
2022/02/18 06:03:55;;;;;;;23.23;2.30;;;;;;;9.44;77.78;95909.00;5037319;28;20205;-69
2022/02/18 06:06:23;;;;;;;4.70;0.97;;;;;;;9.93;76.61;95904.94;5038614;28;20205;-69
2022/02/18 06:08:49;;;;;;;1.30;0.80;;;;;;;9.89;75.97;95896.56;5038199;28;20209;-69
2022/02/18 06:11:16;;;;;;;13.00;1.40;;;;;;;10.01;75.30;95891.69;5037170;28;20735;-69
2022/02/18 06:13:43;;;;;;;14.10;2.20;;;;;;;10.01;75.13;95891.69;5037806;28;20232;-69
2022/02/18 06:16:09;;;;;;;6.27;1.30;;;;;;;9.92;75.69;95888.28;5037546;28;20221;-69
2022/02/18 06:18:35;;;;;;;3.80;1.03;;;;;;;9.98;75.51;95881.50;5037462;28;21198;-70
2022/02/18 06:21:03;;;;;;;6.90;0.70;;;;;;;10.11;74.80;95892.25;5037406;28;20225;-70
2022/02/18 06:23:31;;;;;;;16.13;2.33;;;;;;;10.16;75.20;95888.06;5036941;28;20208;-70
2022/02/18 06:25:58;;;;;;;8.80;3.03;;;;;;;10.01;75.33;95871.44;5037693;28;20216;-70
2022/02/18 06:28:24;;;;;;;17.73;4.13;;;;;;;10.07;74.76;95870.72;5043168;28;20696;-69
2022/02/18 06:30:50;;;;;;;22.23;7.13;;;;;;;9.99;75.07;95862.94;5047435;28;20225;-70
2022/02/18 06:33:17;;;;;;;71.77;16.10;;;;;;;10.02;74.86;95857.28;5046488;28;20201;-70
2022/02/18 06:35:43;;;;;;;57.07;16.07;;;;;;;10.01;75.15;95858.28;5047276;28;20658;-70
2022/02/18 06:38:11;;;;;;;52.97;14.30;;;;;;;10.05;75.06;95851.66;5047529;28;20209;-70
2022/02/18 06:40:39;;;;;;;57.47;14.77;;;;;;;10.12;75.51;95838.56;5043808;28;20225;-69
2022/02/18 06:43:05;;;;;;;52.97;14.47;;;;;;;10.11;75.49;95847.50;5042530;28;20224;-69
2022/02/18 06:45:32;;;;;;;25.80;7.00;;;;;;;10.06;75.65;95837.50;5042209;28;20472;-69
2022/02/18 06:47:58;;;;;;;52.53;12.37;;;;;;;10.27;75.20;95831.47;5043131;28;20548;-69
2022/02/18 06:50:25;;;;;;;44.37;10.40;;;;;;;10.19;75.54;95837.66;5041837;28;20229;-69
2022/02/18 06:52:51;;;;;;;43.03;9.60;;;;;;;10.12;75.97;95841.19;5042567;28;20205;-69
2022/02/18 06:55:22;;;;;;;43.43;12.00;;;;;;;10.22;76.46;95829.41;5042305;28;20213;-69
2022/02/18 06:57:51;;;;;;;77.73;19.47;;;;;;;10.36;76.42;95824.09;5042008;28;20701;-69
2022/02/18 07:00:17;;;;;;;44.23;12.47;;;;;;;10.29;76.76;95817.13;5043073;28;20250;-69
2022/02/18 07:02:44;;;;;;;22.93;5.67;;;;;;;10.39;76.72;95818.47;5043101;28;20201;-69
2022/02/18 07:05:12;;;;;;;6.00;2.30;;;;;;;10.50;77.63;95810.09;5043390;28;20220;-69
2022/02/18 07:07:39;;;;;;;16.67;3.70;;;;;;;10.39;78.20;95802.66;5043599;28;20211;-69
2022/02/18 07:10:08;;;;;;;16.83;5.43;;;;;;;10.54;78.43;95794.72;5042907;28;20236;-69
2022/02/18 07:12:35;;;;;;;13.90;5.27;;;;;;;10.17;79.54;95802.81;5042763;28;20205;-69
2022/02/18 07:15:03;;;;;;;8.37;3.17;;;;;;;10.27;79.76;95798.06;5044369;28;20209;-69
2022/02/18 07:17:31;;;;;;;5.10;1.63;;;;;;;10.38;79.56;95795.75;5043506;28;20649;-69
2022/02/18 07:19:58;;;;;;;8.10;2.70;;;;;;;10.26;80.09;95791.19;5042987;28;20221;-69
2022/02/18 07:22:25;;;;;;;18.30;5.60;;;;;;;10.20;80.24;95789.28;5042548;28;20205;-69
2022/02/18 07:24:53;;;;;;;13.23;3.40;;;;;;;10.33;80.02;95776.25;5042576;28;20216;-69
2022/02/18 07:27:19;;;;;;;14.47;3.47;;;;;;;10.26;80.06;95775.38;5042732;28;20223;-69
2022/02/18 07:29:46;;;;;;;8.13;2.50;;;;;;;10.26;80.07;95771.91;5042936;28;20713;-69
2022/02/18 07:32:14;;;;;;;10.03;2.07;;;;;;;10.36;80.11;95754.78;5042243;28;20752;-69
2022/02/18 07:34:41;;;;;;;7.43;2.83;;;;;;;10.34;79.73;95762.09;5042561;28;20614;-69
2022/02/18 07:37:07;;;;;;;22.33;6.23;;;;;;;10.42;80.04;95759.31;5043044;28;20233;-69
2022/02/18 07:39:34;;;;;;;19.97;4.07;;;;;;;10.35;79.58;95758.47;5042510;28;20198;-69
2022/02/18 07:42:01;;;;;;;39.07;6.87;;;;;;;10.40;80.26;95766.63;5042871;28;20571;-69
2022/02/18 07:44:27;;;;;;;16.57;4.40;;;;;;;10.32;79.52;95755.38;5042315;28;20204;-69
2022/02/18 07:46:54;;;;;;;31.70;9.37;;;;;;;10.27;79.94;95758.56;5045939;28;20209;-70
2022/02/18 07:49:22;;;;;;;47.57;8.33;;;;;;;10.43;79.59;95761.75;5045240;28;20205;-70
2022/02/18 07:51:48;;;;;;;48.40;7.33;;;;;;;10.49;79.50;95749.69;5044808;28;20221;-69
2022/02/18 07:54:15;;;;;;;24.63;4.70;;;;;;;10.45;79.70;95754.50;5046056;28;20213;-69
2022/02/18 07:56:43;;;;;;;29.60;4.17;;;;;;;10.49;79.17;95749.69;5045878;28;20335;-69
2022/02/18 07:59:09;;;;;;;27.23;6.73;;;;;;;10.58;78.81;95732.75;5046289;28;20203;-69
2022/02/18 08:01:36;;;;;;;34.40;5.03;;;;;;;10.55;78.64;95725.19;5046199;28;20229;-69
2022/02/18 08:04:04;;;;;;;15.00;2.47;;;;;;;10.48;78.84;95729.59;5046264;28;20221;-69
2022/02/18 08:06:32;;;;;;;21.60;5.10;;;;;;;10.69;78.53;95724.31;5043961;28;20282;-69
2022/02/18 08:08:58;;;;;;;39.47;8.37;;;;;;;10.62;78.60;95729.53;5043255;28;20255;-69
2022/02/18 08:11:25;;;;;;;10.33;3.33;;;;;;;10.77;77.67;95717.09;5044055;28;20533;-69
2022/02/18 08:13:51;;;;;;;14.30;2.10;;;;;;;10.86;77.43;95720.41;5043586;28;20209;-69
2022/02/18 08:16:18;;;;;;;3.57;1.27;;;;;;;10.73;78.33;95709.75;5044733;28;20228;-69
2022/02/18 08:18:44;;;;;;;4.90;1.07;;;;;;;10.79;77.28;95698.47;5045071;28;20217;-69
2022/02/18 08:21:12;;;;;;;7.10;2.27;;;;;;;10.89;77.40;95691.84;5044742;28;20221;-69
2022/02/18 08:23:40;;;;;;;4.63;1.90;;;;;;;11.07;76.85;95692.16;5044824;28;20204;-69
2022/02/18 08:26:07;;;;;;;5.80;2.20;;;;;;;10.93;76.98;95685.19;5045146;28;20209;-69
2022/02/18 08:28:33;;;;;;;2.13;1.03;;;;;;;10.90;77.50;95690.03;5045586;28;20201;-69
2022/02/18 08:31:00;;;;;;;4.53;0.93;;;;;;;10.63;77.68;95691.66;5045759;28;20233;-69
2022/02/18 08:33:27;;;;;;;2.63;0.87;;;;;;;10.80;76.88;95685.09;5045980;28;20209;-69
2022/02/18 08:35:54;;;;;;;7.93;1.10;;;;;;;10.98;76.60;95683.63;5044216;28;20209;-69
2022/02/18 08:38:20;;;;;;;5.73;0.83;;;;;;;11.00;75.23;95676.31;5045247;28;20274;-69
2022/02/18 08:40:48;;;;;;;3.33;1.40;;;;;;;11.30;75.50;95669.00;5045053;28;20221;-69
2022/02/18 08:43:15;;;;;;;8.33;1.37;;;;;;;11.40;74.06;95664.97;5045491;28;20679;-69
2022/02/18 08:45:41;;;;;;;7.53;2.07;;;;;;;11.45;73.50;95652.00;5045905;28;20201;-70
2022/02/18 08:48:09;;;;;;;10.80;1.30;;;;;;;11.62;73.54;95645.41;5046971;28;20680;-69
2022/02/18 08:50:35;;;;;;;5.47;1.90;;;;;;;11.54;73.17;95636.88;5046715;28;20228;-69
2022/02/18 08:53:02;;;;;;;4.57;1.87;;;;;;;11.51;72.95;95627.53;5047356;28;20209;-69
2022/02/18 08:55:29;;;;;;;3.53;1.00;;;;;;;11.70;73.03;95629.44;5046290;28;20205;-69
2022/02/18 08:57:57;;;;;;;5.60;1.20;;;;;;;11.63;72.61;95636.50;5045436;28;20229;-69
2022/02/18 09:00:25;;;;;;;5.20;2.20;;;;;;;11.70;71.82;95637.34;5045477;28;20225;-69
2022/02/18 09:02:51;;;;;;;4.97;1.00;;;;;;;11.56;72.11;95620.63;5044323;28;20201;-69
2022/02/18 09:05:18;;;;;;;8.50;1.10;;;;;;;11.79;71.47;95625.59;5043555;28;20584;-69
2022/02/18 09:07:44;;;;;;;1.93;0.70;;;;;;;11.74;70.84;95617.47;5044659;28;20212;-69
2022/02/18 09:10:11;;;;;;;1.90;0.70;;;;;;;11.98;70.53;95609.00;5043874;28;20712;-70
2022/02/18 09:12:39;;;;;;;3.83;0.77;;;;;;;11.69;70.32;95598.75;5043259;28;20250;-69
2022/02/18 09:15:09;;;;;;;0.70;0.37;;;;;;;11.93;69.84;95604.31;5043756;28;20213;-69
2022/02/18 09:17:35;;;;;;;4.53;0.70;;;;;;;11.88;70.01;95600.66;5045303;28;20224;-69
2022/02/18 09:20:04;;;;;;;1.33;0.73;;;;;;;11.82;69.91;95596.94;5046987;28;20236;-69
2022/02/18 09:22:32;;;;;;;2.70;0.60;;;;;;;11.90;69.10;95588.88;5046290;28;20201;-69
2022/02/18 09:24:58;;;;;;;4.33;1.03;;;;;;;11.98;69.35;95593.16;5046402;28;20204;-69
2022/02/18 09:27:25;;;;;;;0.60;0.40;;;;;;;11.88;69.16;95592.72;5046515;28;20610;-69
2022/02/18 09:29:51;;;;;;;6.00;1.03;;;;;;;12.00;68.86;95577.91;5045743;28;20229;-69
2022/02/18 09:32:20;;;;;;;4.30;0.73;;;;;;;12.23;68.52;95572.03;5046050;28;20219;-69
2022/02/18 09:34:46;;;;;;;0.40;0.40;;;;;;;12.08;68.24;95567.16;5046275;28;20197;-69
2022/02/18 09:37:15;;;;;;;2.70;0.80;;;;;;;12.35;67.46;95570.41;5045923;28;20596;-69
2022/02/18 09:39:41;;;;;;;1.00;0.47;;;;;;;12.30;67.30;95566.75;5044937;28;20288;-69
2022/02/18 09:42:08;;;;;;;2.63;0.73;;;;;;;12.09;67.55;95563.50;5046306;28;20205;-69
2022/02/18 09:44:36;;;;;;;2.23;0.50;;;;;;;12.57;67.12;95561.25;5046228;28;20729;-69
2022/02/18 09:47:03;;;;;;;4.37;0.70;;;;;;;12.29;67.26;95560.66;5046446;28;20684;-70
2022/02/18 09:49:34;;;;;;;6.77;1.47;;;;;;;12.57;67.08;95550.66;5045519;28;20216;-69
2022/02/18 09:52:01;;;;;;;3.70;0.90;;;;;;;12.33;67.21;95553.97;5044161;28;20737;-69
2022/02/18 09:54:28;;;;;;;1.10;0.63;;;;;;;12.56;66.71;95549.03;5045633;28;20205;-69
2022/02/18 09:56:54;;;;;;;9.10;0.67;;;;;;;12.52;66.77;95539.09;5043873;28;20208;-69
2022/02/18 09:59:21;;;;;;;3.47;1.03;;;;;;;12.63;66.59;95535.84;5044201;28;20231;-69
2022/02/18 10:01:48;;;;;;;1.20;0.60;;;;;;;12.79;66.28;95537.03;5045209;28;20225;-70
2022/02/18 10:04:15;;;;;;;4.53;1.03;;;;;;;12.61;66.32;95528.09;5045153;28;20282;-69
2022/02/18 10:06:43;;;;;;;2.60;0.70;;;;;;;12.78;66.34;95524.81;5045597;28;20212;-69
2022/02/18 10:09:09;;;;;;;4.27;0.87;;;;;;;12.68;66.84;95525.44;5044578;28;20205;-69
2022/02/18 10:11:51;;;;;;;2.13;0.60;;;;;;;12.98;65.42;95517.69;5044579;28;20228;-69
2022/02/18 10:14:17;;;;;;;7.40;0.80;;;;;;;12.78;66.75;95516.06;5044510;28;20201;-69
2022/02/18 10:16:44;;;;;;;2.80;1.10;;;;;;;13.18;65.63;95510.47;5045035;28;20205;-70
2022/02/18 10:19:13;;;;;;;2.63;0.90;;;;;;;13.28;65.04;95510.03;5044497;28;20217;-69
2022/02/18 10:21:42;;;;;;;1.27;0.60;;;;;;;13.17;65.47;95510.66;5044905;28;20225;-70
2022/02/18 10:24:13;;;;;;;9.90;0.57;;;;;;;13.26;65.32;95512.06;5044949;28;20574;-70
2022/02/18 10:26:41;;;;;;;1.27;0.60;;;;;;;13.04;65.94;95514.19;5044558;28;20296;-70
2022/02/18 10:29:09;;;;;;;4.63;0.80;;;;;;;13.20;65.70;95500.50;5043689;28;20205;-70
2022/02/18 10:31:37;;;;;;;0.57;0.40;;;;;;;13.05;64.92;95504.44;5043821;28;20221;-70
2022/02/18 10:34:05;;;;;;;1.30;0.43;;;;;;;13.29;65.18;95495.75;5044994;28;20212;-70
2022/02/18 10:36:42;;;;;;;1.53;0.67;;;;;;;13.43;64.55;95488.34;5045551;28;20685;-70
2022/02/18 10:39:28;;;;;;;6.43;0.73;;;;;;;13.42;64.82;95486.72;5045616;28;20228;-70
2022/02/18 10:41:57;;;;;;;0.50;0.30;;;;;;;13.05;65.52;95491.19;5045047;28;20208;-70
2022/02/18 10:44:25;;;;;;;1.67;0.50;;;;;;;13.36;65.52;95475.38;5043578;28;20579;-70
2022/02/18 10:46:56;;;;;;;1.87;0.40;;;;;;;13.26;65.61;95473.16;5043695;28;20280;-70
2022/02/18 10:49:24;;;;;;;0.43;0.40;;;;;;;13.46;65.03;95460.66;5042425;28;20670;-70
2022/02/18 10:51:51;;;;;;;6.70;0.97;;;;;;;13.50;65.03;95452.09;5042162;28;20221;-70
2022/02/18 10:54:18;;;;;;;2.40;0.90;;;;;;;13.60;64.94;95447.09;5042943;28;20731;-70
2022/02/18 10:56:46;;;;;;;1.77;1.37;;;;;;;13.75;64.83;95444.97;5043719;28;20234;-70
2022/02/18 10:59:30;;;;;;;2.80;0.60;;;;;;;13.80;64.93;95437.19;5042610;28;20232;-70
2022/02/18 11:01:56;;;;;;;2.30;0.75;;;;;;;13.64;64.94;95436.91;5043993;28;20209;-70
2022/02/18 11:04:28;;;;;;;6.10;0.70;;;;;;;13.98;65.25;95421.34;5043909;28;20232;-70
2022/02/18 11:07:08;;;;;;;2.00;0.73;;;;;;;13.90;64.75;95415.50;5044617;28;20927;-70
2022/02/18 11:09:34;;;;;;;1.90;1.00;;;;;;;13.67;64.65;95410.81;5042268;28;20609;-70
2022/02/18 11:12:07;;;;;;;1.70;0.70;;;;;;;13.96;64.91;95394.28;5043748;28;20205;-70
2022/02/18 11:14:34;;;;;;;2.13;1.03;;;;;;;13.67;65.29;95394.94;5044491;28;20233;-70
2022/02/18 11:17:01;;;;;;;2.63;0.60;;;;;;;14.00;64.79;95384.84;5045455;28;20205;-70
2022/02/18 11:19:28;;;;;;;3.25;0.50;;;;;;;14.00;64.65;95376.91;5044124;28;20727;-70
2022/02/18 11:21:55;;;;;;;7.07;0.43;;;;;;;13.92;64.72;95376.41;5049208;28;20832;-70
2022/02/18 11:24:24;;;;;;;3.03;0.75;;;;;;;14.56;63.54;95364.31;5048786;28;20247;-70
2022/02/18 11:26:51;;;;;;;5.37;1.03;;;;;;;14.69;62.70;95344.56;5048330;28;20928;-70
2022/02/18 11:29:20;;;;;;;2.80;1.27;;;;;;;14.87;62.31;95338.44;5047599;28;20212;-70
2022/02/18 11:31:50;;;;;;;3.45;0.93;;;;;;;15.41;61.65;95339.06;5046942;28;20271;-70
2022/02/18 11:34:38;;;;;;;2.05;0.70;;;;;;;15.35;60.97;95326.72;5045966;28;20358;-70
2022/02/18 11:37:31;;;;;;;1.20;0.77;;;;;;;15.18;61.08;95312.44;5047877;28;20216;-70